sensor_id;sensor_type;location;lat;lon;timestamp;P1;durP1;ratioP1;P2;durP2;ratioP2
1811;SDS011;904;47.814;11.134;2022-12-18T00:00:25;29.15;;;14.55;;
1811;SDS011;904;47.814;11.134;2022-12-18T00:02:52;25.90;;;12.90;;
1811;SDS011;904;47.814;11.134;2022-12-18T00:05:19;33.20;;;14.73;;
1811;SDS011;904;47.814;11.134;2022-12-18T00:07:47;31.98;;;16.40;;
1811;SDS011;904;47.814;11.134;2022-12-18T00:10:16;34.42;;;18.00;;
1811;SDS011;904;47.814;11.134;2022-12-18T00:12:43;30.75;;;16.40;;
1811;SDS011;904;47.814;11.134;2022-12-18T00:15:10;34.40;;;17.48;;
1811;SDS011;904;47.814;11.134;2022-12-18T00:17:38;37.63;;;18.85;;
1811;SDS011;904;47.814;11.134;2022-12-18T00:20:06;36.08;;;17.45;;
1811;SDS011;904;47.814;11.134;2022-12-18T00:22:37;35.50;;;16.55;;
1811;SDS011;904;47.814;11.134;2022-12-18T00:25:06;38.90;;;17.30;;
1811;SDS011;904;47.814;11.134;2022-12-18T00:27:42;33.60;;;16.45;;
1811;SDS011;904;47.814;11.134;2022-12-18T00:30:10;39.38;;;19.55;;
1811;SDS011;904;47.814;11.134;2022-12-18T00:32:40;41.20;;;16.88;;
1811;SDS011;904;47.814;11.134;2022-12-18T00:35:08;38.63;;;18.52;;
1811;SDS011;904;47.814;11.134;2022-12-18T00:37:37;35.22;;;18.38;;
1811;SDS011;904;47.814;11.134;2022-12-18T00:40:05;32.95;;;18.45;;
1811;SDS011;904;47.814;11.134;2022-12-18T00:42:33;36.30;;;18.10;;
1811;SDS011;904;47.814;11.134;2022-12-18T00:45:19;30.75;;;16.98;;
1811;SDS011;904;47.814;11.134;2022-12-18T00:47:54;36.30;;;18.35;;
1811;SDS011;904;47.814;11.134;2022-12-18T00:50:23;39.25;;;18.85;;
1811;SDS011;904;47.814;11.134;2022-12-18T00:52:53;37.50;;;18.95;;
1811;SDS011;904;47.814;11.134;2022-12-18T00:55:20;37.72;;;17.55;;
1811;SDS011;904;47.814;11.134;2022-12-18T00:57:50;35.72;;;18.15;;
1811;SDS011;904;47.814;11.134;2022-12-18T01:00:20;35.88;;;20.23;;
1811;SDS011;904;47.814;11.134;2022-12-18T01:02:48;42.33;;;18.50;;
1811;SDS011;904;47.814;11.134;2022-12-18T01:05:15;43.53;;;18.92;;
1811;SDS011;904;47.814;11.134;2022-12-18T01:07:42;32.70;;;16.88;;
1811;SDS011;904;47.814;11.134;2022-12-18T01:10:09;38.85;;;18.70;;
1811;SDS011;904;47.814;11.134;2022-12-18T01:12:38;36.85;;;18.65;;
1811;SDS011;904;47.814;11.134;2022-12-18T01:15:07;44.67;;;21.77;;
1811;SDS011;904;47.814;11.134;2022-12-18T01:17:38;40.08;;;22.15;;
1811;SDS011;904;47.814;11.134;2022-12-18T01:20:08;34.22;;;17.80;;
1811;SDS011;904;47.814;11.134;2022-12-18T01:22:39;34.05;;;16.42;;
1811;SDS011;904;47.814;11.134;2022-12-18T01:25:09;36.13;;;18.58;;
1811;SDS011;904;47.814;11.134;2022-12-18T01:27:39;32.40;;;19.23;;
1811;SDS011;904;47.814;11.134;2022-12-18T01:30:06;27.33;;;16.23;;
1811;SDS011;904;47.814;11.134;2022-12-18T01:32:39;28.63;;;15.75;;
1811;SDS011;904;47.814;11.134;2022-12-18T01:35:07;30.52;;;15.82;;
1811;SDS011;904;47.814;11.134;2022-12-18T01:37:36;27.25;;;15.85;;
1811;SDS011;904;47.814;11.134;2022-12-18T01:40:04;30.20;;;15.45;;
1811;SDS011;904;47.814;11.134;2022-12-18T01:42:34;34.13;;;14.90;;
1811;SDS011;904;47.814;11.134;2022-12-18T01:45:06;25.83;;;13.75;;
1811;SDS011;904;47.814;11.134;2022-12-18T01:47:51;34.70;;;16.20;;
1811;SDS011;904;47.814;11.134;2022-12-18T01:50:23;29.88;;;15.38;;
1811;SDS011;904;47.814;11.134;2022-12-18T01:53:00;32.13;;;16.13;;
1811;SDS011;904;47.814;11.134;2022-12-18T01:55:37;29.83;;;15.05;;
1811;SDS011;904;47.814;11.134;2022-12-18T01:58:16;31.33;;;16.45;;
1811;SDS011;904;47.814;11.134;2022-12-18T02:00:46;32.17;;;15.90;;
1811;SDS011;904;47.814;11.134;2022-12-18T02:03:15;25.80;;;14.30;;
1811;SDS011;904;47.814;11.134;2022-12-18T02:05:44;30.92;;;15.50;;
1811;SDS011;904;47.814;11.134;2022-12-18T02:08:19;34.55;;;14.93;;
1811;SDS011;904;47.814;11.134;2022-12-18T02:10:53;29.55;;;16.13;;
1811;SDS011;904;47.814;11.134;2022-12-18T02:13:33;35.88;;;16.90;;
1811;SDS011;904;47.814;11.134;2022-12-18T02:16:08;34.05;;;17.00;;
1811;SDS011;904;47.814;11.134;2022-12-18T02:18:48;31.33;;;15.90;;
1811;SDS011;904;47.814;11.134;2022-12-18T02:21:20;30.55;;;16.15;;
1811;SDS011;904;47.814;11.134;2022-12-18T02:24:00;30.13;;;16.25;;
1811;SDS011;904;47.814;11.134;2022-12-18T02:26:43;29.83;;;14.55;;
1811;SDS011;904;47.814;11.134;2022-12-18T02:29:15;35.97;;;16.85;;
1811;SDS011;904;47.814;11.134;2022-12-18T02:31:49;34.13;;;15.57;;
1811;SDS011;904;47.814;11.134;2022-12-18T02:34:21;32.83;;;16.23;;
1811;SDS011;904;47.814;11.134;2022-12-18T02:36:57;30.30;;;15.77;;
1811;SDS011;904;47.814;11.134;2022-12-18T02:39:27;31.48;;;15.77;;
1811;SDS011;904;47.814;11.134;2022-12-18T02:41:58;31.88;;;16.00;;
1811;SDS011;904;47.814;11.134;2022-12-18T02:44:33;33.55;;;16.23;;
1811;SDS011;904;47.814;11.134;2022-12-18T02:47:00;34.45;;;17.08;;
1811;SDS011;904;47.814;11.134;2022-12-18T02:49:34;33.83;;;16.63;;
1811;SDS011;904;47.814;11.134;2022-12-18T02:52:13;31.23;;;17.00;;
1811;SDS011;904;47.814;11.134;2022-12-18T02:55:04;25.27;;;14.20;;
1811;SDS011;904;47.814;11.134;2022-12-18T02:57:44;32.22;;;14.95;;
1811;SDS011;904;47.814;11.134;2022-12-18T03:00:17;26.98;;;14.38;;
1811;SDS011;904;47.814;11.134;2022-12-18T03:02:48;34.75;;;17.83;;
1811;SDS011;904;47.814;11.134;2022-12-18T03:05:22;35.17;;;17.10;;
1811;SDS011;904;47.814;11.134;2022-12-18T03:07:56;31.08;;;14.75;;
1811;SDS011;904;47.814;11.134;2022-12-18T03:10:32;31.98;;;14.73;;
1811;SDS011;904;47.814;11.134;2022-12-18T03:13:08;36.15;;;15.85;;
1811;SDS011;904;47.814;11.134;2022-12-18T03:15:44;33.35;;;14.85;;
1811;SDS011;904;47.814;11.134;2022-12-18T03:18:16;28.02;;;14.50;;
1811;SDS011;904;47.814;11.134;2022-12-18T03:20:46;33.47;;;16.60;;
1811;SDS011;904;47.814;11.134;2022-12-18T03:23:16;32.63;;;16.77;;
1811;SDS011;904;47.814;11.134;2022-12-18T03:25:47;34.55;;;14.75;;
1811;SDS011;904;47.814;11.134;2022-12-18T03:28:21;33.50;;;13.38;;
1811;SDS011;904;47.814;11.134;2022-12-18T03:30:49;31.02;;;15.57;;
1811;SDS011;904;47.814;11.134;2022-12-18T03:33:24;32.67;;;14.70;;
1811;SDS011;904;47.814;11.134;2022-12-18T03:35:55;33.38;;;16.88;;
1811;SDS011;904;47.814;11.134;2022-12-18T03:38:23;32.53;;;14.32;;
1811;SDS011;904;47.814;11.134;2022-12-18T03:40:53;39.53;;;17.38;;
1811;SDS011;904;47.814;11.134;2022-12-18T03:43:30;33.17;;;16.58;;
1811;SDS011;904;47.814;11.134;2022-12-18T03:46:21;29.70;;;14.18;;
1811;SDS011;904;47.814;11.134;2022-12-18T03:49:06;32.58;;;13.85;;
1811;SDS011;904;47.814;11.134;2022-12-18T03:51:45;33.85;;;14.30;;
1811;SDS011;904;47.814;11.134;2022-12-18T03:54:20;29.52;;;13.38;;
1811;SDS011;904;47.814;11.134;2022-12-18T03:56:54;29.50;;;13.32;;
1811;SDS011;904;47.814;11.134;2022-12-18T03:59:26;30.08;;;13.68;;
1811;SDS011;904;47.814;11.134;2022-12-18T04:01:58;31.77;;;14.68;;
1811;SDS011;904;47.814;11.134;2022-12-18T04:04:27;28.05;;;12.70;;
1811;SDS011;904;47.814;11.134;2022-12-18T04:06:57;32.97;;;15.88;;
1811;SDS011;904;47.814;11.134;2022-12-18T04:09:25;37.38;;;14.15;;
1811;SDS011;904;47.814;11.134;2022-12-18T04:11:54;30.63;;;14.48;;
1811;SDS011;904;47.814;11.134;2022-12-18T04:14:21;27.20;;;13.48;;
1811;SDS011;904;47.814;11.134;2022-12-18T04:16:56;35.97;;;13.95;;
1811;SDS011;904;47.814;11.134;2022-12-18T04:19:24;32.60;;;13.85;;
1811;SDS011;904;47.814;11.134;2022-12-18T04:21:51;29.92;;;14.48;;
1811;SDS011;904;47.814;11.134;2022-12-18T04:24:23;32.92;;;14.25;;
1811;SDS011;904;47.814;11.134;2022-12-18T04:26:53;31.20;;;12.68;;
1811;SDS011;904;47.814;11.134;2022-12-18T04:29:21;25.55;;;12.40;;
1811;SDS011;904;47.814;11.134;2022-12-18T04:31:48;29.15;;;14.45;;
1811;SDS011;904;47.814;11.134;2022-12-18T04:34:19;28.35;;;13.90;;
1811;SDS011;904;47.814;11.134;2022-12-18T04:36:53;33.75;;;15.23;;
1811;SDS011;904;47.814;11.134;2022-12-18T04:39:20;38.25;;;16.10;;
1811;SDS011;904;47.814;11.134;2022-12-18T04:41:48;28.30;;;14.07;;
1811;SDS011;904;47.814;11.134;2022-12-18T04:44:15;32.65;;;14.63;;
1811;SDS011;904;47.814;11.134;2022-12-18T04:46:43;27.20;;;12.70;;
1811;SDS011;904;47.814;11.134;2022-12-18T04:49:11;32.03;;;14.05;;
1811;SDS011;904;47.814;11.134;2022-12-18T04:51:40;23.00;;;12.50;;
1811;SDS011;904;47.814;11.134;2022-12-18T04:54:10;27.67;;;12.18;;
1811;SDS011;904;47.814;11.134;2022-12-18T04:56:37;27.42;;;13.75;;
1811;SDS011;904;47.814;11.134;2022-12-18T04:59:05;30.67;;;16.25;;
1811;SDS011;904;47.814;11.134;2022-12-18T05:01:34;29.73;;;13.25;;
1811;SDS011;904;47.814;11.134;2022-12-18T05:04:01;26.38;;;12.60;;
1811;SDS011;904;47.814;11.134;2022-12-18T05:06:29;28.60;;;14.27;;
1811;SDS011;904;47.814;11.134;2022-12-18T05:08:58;23.63;;;12.77;;
1811;SDS011;904;47.814;11.134;2022-12-18T05:11:26;20.50;;;11.20;;
1811;SDS011;904;47.814;11.134;2022-12-18T05:13:53;27.25;;;11.80;;
1811;SDS011;904;47.814;11.134;2022-12-18T05:16:21;25.73;;;12.73;;
1811;SDS011;904;47.814;11.134;2022-12-18T05:18:49;30.08;;;14.43;;
1811;SDS011;904;47.814;11.134;2022-12-18T05:21:21;30.92;;;13.23;;
1811;SDS011;904;47.814;11.134;2022-12-18T05:23:48;36.20;;;14.82;;
1811;SDS011;904;47.814;11.134;2022-12-18T05:26:18;21.90;;;12.70;;
1811;SDS011;904;47.814;11.134;2022-12-18T05:28:46;29.40;;;14.48;;
1811;SDS011;904;47.814;11.134;2022-12-18T05:31:16;27.88;;;14.05;;
1811;SDS011;904;47.814;11.134;2022-12-18T05:33:49;33.20;;;14.43;;
1811;SDS011;904;47.814;11.134;2022-12-18T05:36:17;28.52;;;14.45;;
1811;SDS011;904;47.814;11.134;2022-12-18T05:38:44;26.23;;;14.48;;
1811;SDS011;904;47.814;11.134;2022-12-18T05:41:12;29.17;;;14.10;;
1811;SDS011;904;47.814;11.134;2022-12-18T05:43:41;27.95;;;14.15;;
1811;SDS011;904;47.814;11.134;2022-12-18T05:46:09;28.92;;;14.50;;
1811;SDS011;904;47.814;11.134;2022-12-18T05:48:39;36.22;;;15.75;;
1811;SDS011;904;47.814;11.134;2022-12-18T05:51:07;30.63;;;14.43;;
1811;SDS011;904;47.814;11.134;2022-12-18T05:53:35;40.45;;;18.77;;
1811;SDS011;904;47.814;11.134;2022-12-18T05:56:07;30.65;;;15.50;;
1811;SDS011;904;47.814;11.134;2022-12-18T05:58:37;29.95;;;16.83;;
1811;SDS011;904;47.814;11.134;2022-12-18T06:01:07;32.60;;;14.07;;
1811;SDS011;904;47.814;11.134;2022-12-18T06:03:35;33.35;;;15.00;;
1811;SDS011;904;47.814;11.134;2022-12-18T06:06:03;32.50;;;13.75;;
1811;SDS011;904;47.814;11.134;2022-12-18T06:08:38;41.45;;;15.52;;
1811;SDS011;904;47.814;11.134;2022-12-18T06:11:06;31.45;;;15.18;;
1811;SDS011;904;47.814;11.134;2022-12-18T06:13:33;30.10;;;14.02;;
1811;SDS011;904;47.814;11.134;2022-12-18T06:16:01;31.98;;;13.82;;
1811;SDS011;904;47.814;11.134;2022-12-18T06:18:34;31.23;;;15.68;;
1811;SDS011;904;47.814;11.134;2022-12-18T06:21:01;34.97;;;14.57;;
1811;SDS011;904;47.814;11.134;2022-12-18T06:23:29;32.42;;;14.68;;
1811;SDS011;904;47.814;11.134;2022-12-18T06:25:56;39.50;;;17.73;;
1811;SDS011;904;47.814;11.134;2022-12-18T06:28:24;35.08;;;14.30;;
1811;SDS011;904;47.814;11.134;2022-12-18T06:30:51;40.55;;;16.10;;
1811;SDS011;904;47.814;11.134;2022-12-18T06:33:18;31.42;;;13.70;;
1811;SDS011;904;47.814;11.134;2022-12-18T06:35:48;32.25;;;14.07;;
1811;SDS011;904;47.814;11.134;2022-12-18T06:38:15;29.50;;;14.98;;
1811;SDS011;904;47.814;11.134;2022-12-18T06:40:48;29.70;;;14.20;;
1811;SDS011;904;47.814;11.134;2022-12-18T06:43:23;28.50;;;13.00;;
1811;SDS011;904;47.814;11.134;2022-12-18T06:45:57;28.73;;;13.32;;
1811;SDS011;904;47.814;11.134;2022-12-18T06:48:26;38.83;;;16.85;;
1811;SDS011;904;47.814;11.134;2022-12-18T06:50:55;34.03;;;17.00;;
1811;SDS011;904;47.814;11.134;2022-12-18T06:53:27;34.85;;;14.95;;
1811;SDS011;904;47.814;11.134;2022-12-18T06:55:59;41.15;;;16.52;;
1811;SDS011;904;47.814;11.134;2022-12-18T06:58:27;37.70;;;15.55;;
1811;SDS011;904;47.814;11.134;2022-12-18T07:00:59;31.05;;;15.48;;
1811;SDS011;904;47.814;11.134;2022-12-18T07:03:27;36.33;;;16.42;;
1811;SDS011;904;47.814;11.134;2022-12-18T07:05:56;30.08;;;15.00;;
1811;SDS011;904;47.814;11.134;2022-12-18T07:08:23;32.17;;;15.43;;
1811;SDS011;904;47.814;11.134;2022-12-18T07:10:51;36.28;;;14.68;;
1811;SDS011;904;47.814;11.134;2022-12-18T07:13:19;36.30;;;16.42;;
1811;SDS011;904;47.814;11.134;2022-12-18T07:15:46;43.05;;;18.20;;
1811;SDS011;904;47.814;11.134;2022-12-18T07:18:14;33.67;;;14.82;;
1811;SDS011;904;47.814;11.134;2022-12-18T07:20:42;33.95;;;14.25;;
1811;SDS011;904;47.814;11.134;2022-12-18T07:23:20;32.35;;;14.95;;
1811;SDS011;904;47.814;11.134;2022-12-18T07:25:48;34.90;;;17.35;;
1811;SDS011;904;47.814;11.134;2022-12-18T07:28:16;32.10;;;15.63;;
1811;SDS011;904;47.814;11.134;2022-12-18T07:30:44;35.30;;;16.52;;
1811;SDS011;904;47.814;11.134;2022-12-18T07:33:11;32.53;;;16.20;;
1811;SDS011;904;47.814;11.134;2022-12-18T07:35:43;28.48;;;14.57;;
1811;SDS011;904;47.814;11.134;2022-12-18T07:38:15;34.97;;;15.85;;
1811;SDS011;904;47.814;11.134;2022-12-18T07:40:50;33.20;;;13.88;;
1811;SDS011;904;47.814;11.134;2022-12-18T07:43:18;40.70;;;16.75;;
1811;SDS011;904;47.814;11.134;2022-12-18T07:45:48;34.55;;;17.00;;
1811;SDS011;904;47.814;11.134;2022-12-18T07:48:16;33.08;;;16.80;;
1811;SDS011;904;47.814;11.134;2022-12-18T07:50:45;36.60;;;16.20;;
1811;SDS011;904;47.814;11.134;2022-12-18T07:53:13;38.13;;;17.33;;
1811;SDS011;904;47.814;11.134;2022-12-18T07:55:41;34.75;;;16.08;;
1811;SDS011;904;47.814;11.134;2022-12-18T07:58:18;31.08;;;15.50;;
1811;SDS011;904;47.814;11.134;2022-12-18T08:00:46;31.40;;;15.50;;
1811;SDS011;904;47.814;11.134;2022-12-18T08:03:15;35.83;;;17.42;;
1811;SDS011;904;47.814;11.134;2022-12-18T08:05:43;30.55;;;15.85;;
1811;SDS011;904;47.814;11.134;2022-12-18T08:08:19;31.77;;;16.55;;
1811;SDS011;904;47.814;11.134;2022-12-18T08:10:48;27.13;;;15.90;;
1811;SDS011;904;47.814;11.134;2022-12-18T08:13:19;38.25;;;16.77;;
1811;SDS011;904;47.814;11.134;2022-12-18T08:15:55;28.50;;;15.07;;
1811;SDS011;904;47.814;11.134;2022-12-18T08:18:38;36.30;;;15.93;;
1811;SDS011;904;47.814;11.134;2022-12-18T08:21:11;28.05;;;13.95;;
1811;SDS011;904;47.814;11.134;2022-12-18T08:23:40;29.88;;;15.02;;
1811;SDS011;904;47.814;11.134;2022-12-18T08:26:12;32.97;;;16.73;;
1811;SDS011;904;47.814;11.134;2022-12-18T08:28:47;28.88;;;14.25;;
1811;SDS011;904;47.814;11.134;2022-12-18T08:31:17;35.08;;;14.65;;
1811;SDS011;904;47.814;11.134;2022-12-18T08:33:45;30.73;;;14.00;;
1811;SDS011;904;47.814;11.134;2022-12-18T08:36:15;29.63;;;14.95;;
1811;SDS011;904;47.814;11.134;2022-12-18T08:38:43;26.00;;;12.35;;
1811;SDS011;904;47.814;11.134;2022-12-18T08:41:12;27.92;;;15.25;;
1811;SDS011;904;47.814;11.134;2022-12-18T08:43:49;36.28;;;15.82;;
1811;SDS011;904;47.814;11.134;2022-12-18T08:46:35;37.47;;;15.95;;
1811;SDS011;904;47.814;11.134;2022-12-18T08:49:04;34.35;;;15.27;;
1811;SDS011;904;47.814;11.134;2022-12-18T08:51:32;33.42;;;14.55;;
1811;SDS011;904;47.814;11.134;2022-12-18T08:54:00;35.30;;;13.93;;
1811;SDS011;904;47.814;11.134;2022-12-18T08:56:28;37.25;;;17.08;;
1811;SDS011;904;47.814;11.134;2022-12-18T08:58:57;31.30;;;16.00;;
1811;SDS011;904;47.814;11.134;2022-12-18T09:01:25;31.98;;;15.85;;
1811;SDS011;904;47.814;11.134;2022-12-18T09:03:57;33.38;;;17.10;;
1811;SDS011;904;47.814;11.134;2022-12-18T09:06:27;34.42;;;16.85;;
1811;SDS011;904;47.814;11.134;2022-12-18T09:08:54;32.42;;;16.02;;
1811;SDS011;904;47.814;11.134;2022-12-18T09:11:22;34.10;;;15.80;;
1811;SDS011;904;47.814;11.134;2022-12-18T09:13:51;30.33;;;14.82;;
1811;SDS011;904;47.814;11.134;2022-12-18T09:16:20;28.33;;;14.93;;
1811;SDS011;904;47.814;11.134;2022-12-18T09:18:49;35.35;;;15.25;;
1811;SDS011;904;47.814;11.134;2022-12-18T09:21:17;31.55;;;15.95;;
1811;SDS011;904;47.814;11.134;2022-12-18T09:23:48;35.22;;;17.67;;
1811;SDS011;904;47.814;11.134;2022-12-18T09:26:16;28.08;;;13.43;;
1811;SDS011;904;47.814;11.134;2022-12-18T09:28:44;24.60;;;13.52;;
1811;SDS011;904;47.814;11.134;2022-12-18T09:31:11;32.15;;;15.25;;
1811;SDS011;904;47.814;11.134;2022-12-18T09:33:41;24.40;;;13.35;;
1811;SDS011;904;47.814;11.134;2022-12-18T09:36:11;25.45;;;15.45;;
1811;SDS011;904;47.814;11.134;2022-12-18T09:38:45;26.05;;;13.32;;
1811;SDS011;904;47.814;11.134;2022-12-18T09:41:19;25.45;;;13.45;;
1811;SDS011;904;47.814;11.134;2022-12-18T09:44:10;29.40;;;14.38;;
1811;SDS011;904;47.814;11.134;2022-12-18T09:46:47;23.15;;;14.20;;
1811;SDS011;904;47.814;11.134;2022-12-18T09:49:21;33.55;;;16.55;;
1811;SDS011;904;47.814;11.134;2022-12-18T09:51:52;32.28;;;15.60;;
1811;SDS011;904;47.814;11.134;2022-12-18T09:54:23;26.98;;;15.02;;
1811;SDS011;904;47.814;11.134;2022-12-18T09:56:52;28.65;;;14.35;;
1811;SDS011;904;47.814;11.134;2022-12-18T09:59:21;23.83;;;13.60;;
1811;SDS011;904;47.814;11.134;2022-12-18T10:01:51;25.42;;;12.85;;
1811;SDS011;904;47.814;11.134;2022-12-18T10:04:20;28.90;;;14.70;;
1811;SDS011;904;47.814;11.134;2022-12-18T10:06:49;22.98;;;13.55;;
1811;SDS011;904;47.814;11.134;2022-12-18T10:09:24;29.52;;;14.80;;
1811;SDS011;904;47.814;11.134;2022-12-18T10:12:02;34.92;;;17.33;;
1811;SDS011;904;47.814;11.134;2022-12-18T10:14:38;26.70;;;15.00;;
1811;SDS011;904;47.814;11.134;2022-12-18T10:17:13;32.72;;;16.30;;
1811;SDS011;904;47.814;11.134;2022-12-18T10:19:49;32.13;;;16.85;;
1811;SDS011;904;47.814;11.134;2022-12-18T10:22:39;31.25;;;15.82;;
1811;SDS011;904;47.814;11.134;2022-12-18T10:25:21;26.13;;;13.70;;
1811;SDS011;904;47.814;11.134;2022-12-18T10:27:52;29.42;;;15.07;;
1811;SDS011;904;47.814;11.134;2022-12-18T10:30:23;30.80;;;15.10;;
1811;SDS011;904;47.814;11.134;2022-12-18T10:32:53;26.75;;;14.13;;
1811;SDS011;904;47.814;11.134;2022-12-18T10:35:23;25.63;;;12.60;;
1811;SDS011;904;47.814;11.134;2022-12-18T10:38:05;24.15;;;13.05;;
1811;SDS011;904;47.814;11.134;2022-12-18T10:40:47;29.60;;;14.07;;
1811;SDS011;904;47.814;11.134;2022-12-18T10:43:19;29.65;;;14.73;;
1811;SDS011;904;47.814;11.134;2022-12-18T10:45:59;23.20;;;12.93;;
1811;SDS011;904;47.814;11.134;2022-12-18T10:48:28;29.15;;;15.35;;
1811;SDS011;904;47.814;11.134;2022-12-18T10:50:58;23.70;;;12.40;;
1811;SDS011;904;47.814;11.134;2022-12-18T10:53:27;30.70;;;13.90;;
1811;SDS011;904;47.814;11.134;2022-12-18T10:55:57;27.48;;;13.73;;
1811;SDS011;904;47.814;11.134;2022-12-18T10:58:26;25.88;;;13.77;;
1811;SDS011;904;47.814;11.134;2022-12-18T11:01:04;22.27;;;12.32;;
1811;SDS011;904;47.814;11.134;2022-12-18T11:03:36;29.60;;;13.63;;
1811;SDS011;904;47.814;11.134;2022-12-18T11:06:07;25.95;;;13.80;;
1811;SDS011;904;47.814;11.134;2022-12-18T11:08:37;23.60;;;12.02;;
1811;SDS011;904;47.814;11.134;2022-12-18T11:11:14;28.80;;;15.07;;
1811;SDS011;904;47.814;11.134;2022-12-18T11:13:48;27.70;;;16.25;;
1811;SDS011;904;47.814;11.134;2022-12-18T11:16:24;21.95;;;11.45;;
1811;SDS011;904;47.814;11.134;2022-12-18T11:18:52;23.00;;;13.60;;
1811;SDS011;904;47.814;11.134;2022-12-18T11:21:23;26.52;;;11.75;;
1811;SDS011;904;47.814;11.134;2022-12-18T11:23:50;26.65;;;14.05;;
1811;SDS011;904;47.814;11.134;2022-12-18T11:26:19;23.92;;;13.25;;
1811;SDS011;904;47.814;11.134;2022-12-18T11:28:50;23.90;;;13.40;;
1811;SDS011;904;47.814;11.134;2022-12-18T11:31:25;26.80;;;13.40;;
1811;SDS011;904;47.814;11.134;2022-12-18T11:33:57;23.40;;;12.52;;
1811;SDS011;904;47.814;11.134;2022-12-18T11:36:31;28.08;;;13.70;;
1811;SDS011;904;47.814;11.134;2022-12-18T11:39:04;22.85;;;12.40;;
1811;SDS011;904;47.814;11.134;2022-12-18T11:41:39;26.38;;;14.18;;
1811;SDS011;904;47.814;11.134;2022-12-18T11:44:31;22.83;;;12.27;;
1811;SDS011;904;47.814;11.134;2022-12-18T11:47:08;24.05;;;13.20;;
1811;SDS011;904;47.814;11.134;2022-12-18T11:49:45;22.10;;;11.23;;
1811;SDS011;904;47.814;11.134;2022-12-18T11:52:18;22.52;;;12.68;;
1811;SDS011;904;47.814;11.134;2022-12-18T11:54:50;24.25;;;12.55;;
1811;SDS011;904;47.814;11.134;2022-12-18T11:57:24;21.20;;;11.43;;
1811;SDS011;904;47.814;11.134;2022-12-18T12:00:02;18.42;;;11.35;;
1811;SDS011;904;47.814;11.134;2022-12-18T12:02:41;25.40;;;13.15;;
1811;SDS011;904;47.814;11.134;2022-12-18T12:05:28;26.10;;;14.98;;
1811;SDS011;904;47.814;11.134;2022-12-18T12:08:10;29.52;;;13.40;;
1811;SDS011;904;47.814;11.134;2022-12-18T12:11:01;24.10;;;11.65;;
1811;SDS011;904;47.814;11.134;2022-12-18T12:13:38;20.33;;;11.77;;
1811;SDS011;904;47.814;11.134;2022-12-18T12:16:15;18.30;;;11.43;;
1811;SDS011;904;47.814;11.134;2022-12-18T12:18:52;21.08;;;12.05;;
1811;SDS011;904;47.814;11.134;2022-12-18T12:21:34;22.15;;;13.43;;
1811;SDS011;904;47.814;11.134;2022-12-18T12:24:21;32.00;;;17.55;;
1811;SDS011;904;47.814;11.134;2022-12-18T12:26:58;25.63;;;15.45;;
1811;SDS011;904;47.814;11.134;2022-12-18T12:29:35;27.42;;;14.50;;
1811;SDS011;904;47.814;11.134;2022-12-18T12:32:15;28.20;;;13.80;;
1811;SDS011;904;47.814;11.134;2022-12-18T12:34:54;30.35;;;15.40;;
1811;SDS011;904;47.814;11.134;2022-12-18T12:37:40;25.65;;;12.38;;
1811;SDS011;904;47.814;11.134;2022-12-18T12:40:16;24.15;;;13.57;;
1811;SDS011;904;47.814;11.134;2022-12-18T12:42:46;25.30;;;12.60;;
1811;SDS011;904;47.814;11.134;2022-12-18T12:45:34;26.27;;;13.98;;
1811;SDS011;904;47.814;11.134;2022-12-18T12:48:05;23.63;;;14.40;;
1811;SDS011;904;47.814;11.134;2022-12-18T12:50:43;28.90;;;14.23;;
1811;SDS011;904;47.814;11.134;2022-12-18T12:53:14;26.95;;;15.10;;
1811;SDS011;904;47.814;11.134;2022-12-18T12:55:49;24.42;;;13.30;;
1811;SDS011;904;47.814;11.134;2022-12-18T12:58:18;25.17;;;12.48;;
1811;SDS011;904;47.814;11.134;2022-12-18T13:00:54;23.52;;;13.45;;
1811;SDS011;904;47.814;11.134;2022-12-18T13:03:29;24.40;;;12.98;;
1811;SDS011;904;47.814;11.134;2022-12-18T13:06:04;23.13;;;12.65;;
1811;SDS011;904;47.814;11.134;2022-12-18T13:08:51;26.45;;;14.30;;
1811;SDS011;904;47.814;11.134;2022-12-18T13:11:29;25.60;;;15.90;;
1811;SDS011;904;47.814;11.134;2022-12-18T13:14:22;19.33;;;11.15;;
1811;SDS011;904;47.814;11.134;2022-12-18T13:20:02;23.92;;;13.20;;
1811;SDS011;904;47.814;11.134;2022-12-18T13:22:36;24.75;;;11.93;;
1811;SDS011;904;47.814;11.134;2022-12-18T13:28:01;26.25;;;13.40;;
1811;SDS011;904;47.814;11.134;2022-12-18T13:33:37;20.17;;;11.93;;
1811;SDS011;904;47.814;11.134;2022-12-18T13:36:11;23.05;;;12.98;;
1811;SDS011;904;47.814;11.134;2022-12-18T13:38:43;26.65;;;12.40;;
1811;SDS011;904;47.814;11.134;2022-12-18T13:43:54;32.35;;;14.85;;
1811;SDS011;904;47.814;11.134;2022-12-18T13:46:24;29.23;;;15.40;;
1811;SDS011;904;47.814;11.134;2022-12-18T13:48:55;26.55;;;14.40;;
1811;SDS011;904;47.814;11.134;2022-12-18T13:51:25;29.02;;;15.35;;
1811;SDS011;904;47.814;11.134;2022-12-18T13:53:54;28.95;;;13.65;;
1811;SDS011;904;47.814;11.134;2022-12-18T13:56:25;26.50;;;14.48;;
1811;SDS011;904;47.814;11.134;2022-12-18T13:59:05;29.17;;;15.48;;
1811;SDS011;904;47.814;11.134;2022-12-18T14:01:41;25.52;;;14.63;;
1811;SDS011;904;47.814;11.134;2022-12-18T14:04:09;25.20;;;14.90;;
1811;SDS011;904;47.814;11.134;2022-12-18T14:06:44;29.65;;;15.43;;
1811;SDS011;904;47.814;11.134;2022-12-18T14:09:13;25.70;;;14.88;;
1811;SDS011;904;47.814;11.134;2022-12-18T14:11:45;26.67;;;12.93;;
1811;SDS011;904;47.814;11.134;2022-12-18T14:14:18;31.52;;;15.15;;
1811;SDS011;904;47.814;11.134;2022-12-18T14:16:46;28.65;;;15.20;;
1811;SDS011;904;47.814;11.134;2022-12-18T14:19:14;30.02;;;16.45;;
1811;SDS011;904;47.814;11.134;2022-12-18T14:21:45;28.98;;;14.65;;
1811;SDS011;904;47.814;11.134;2022-12-18T14:24:14;27.50;;;14.77;;
1811;SDS011;904;47.814;11.134;2022-12-18T14:26:42;32.45;;;16.13;;
1811;SDS011;904;47.814;11.134;2022-12-18T14:29:25;28.45;;;14.40;;
1811;SDS011;904;47.814;11.134;2022-12-18T14:32:12;33.30;;;16.02;;
1811;SDS011;904;47.814;11.134;2022-12-18T14:34:42;25.23;;;15.00;;
1811;SDS011;904;47.814;11.134;2022-12-18T14:37:10;29.48;;;14.13;;
1811;SDS011;904;47.814;11.134;2022-12-18T14:39:39;24.20;;;12.77;;
1811;SDS011;904;47.814;11.134;2022-12-18T14:42:09;27.08;;;14.35;;
1811;SDS011;904;47.814;11.134;2022-12-18T14:44:38;30.50;;;14.52;;
1811;SDS011;904;47.814;11.134;2022-12-18T14:47:05;28.55;;;13.65;;
1811;SDS011;904;47.814;11.134;2022-12-18T14:49:41;27.02;;;15.07;;
1811;SDS011;904;47.814;11.134;2022-12-18T14:52:24;32.20;;;15.32;;
1811;SDS011;904;47.814;11.134;2022-12-18T14:54:53;33.65;;;16.25;;
1811;SDS011;904;47.814;11.134;2022-12-18T14:57:21;31.02;;;16.38;;
1811;SDS011;904;47.814;11.134;2022-12-18T14:59:51;36.45;;;17.30;;
1811;SDS011;904;47.814;11.134;2022-12-18T15:02:18;32.63;;;16.30;;
1811;SDS011;904;47.814;11.134;2022-12-18T15:04:58;28.95;;;14.00;;
1811;SDS011;904;47.814;11.134;2022-12-18T15:07:38;27.70;;;14.23;;
1811;SDS011;904;47.814;11.134;2022-12-18T15:10:10;22.48;;;12.80;;
1811;SDS011;904;47.814;11.134;2022-12-18T15:12:39;30.92;;;14.45;;
1811;SDS011;904;47.814;11.134;2022-12-18T15:18:21;29.48;;;15.45;;
1811;SDS011;904;47.814;11.134;2022-12-18T15:20:54;29.23;;;14.15;;
1811;SDS011;904;47.814;11.134;2022-12-18T15:23:25;29.00;;;13.75;;
1811;SDS011;904;47.814;11.134;2022-12-18T15:25:55;26.25;;;13.15;;
1811;SDS011;904;47.814;11.134;2022-12-18T15:28:24;20.60;;;12.75;;
1811;SDS011;904;47.814;11.134;2022-12-18T15:30:59;27.73;;;12.98;;